Archival Weather

Chicago O'Hare International

Chicago, Illinois (KORD)

Report from: Friday, September 23, 2022 6:51 AM CDT
Current time: Sunday, December 4, 2022 4:48 AM CST

Current weather
Weather history
Weather forecast

Temperature11.1°C (52.0°F)
Dew point6.7°C (44.1°F)
Winds 4 kts (2.1 m/s, 4.6 mph) South (190°)
Visibility10 mi. (16.1 km)
Clouds Scattered clouds 2,000 ft. (610 m)
Ceiling: Broken clouds 2,900 ft. (884 m)
Broken clouds 25,000 ft. (7,620 m)
Altimeter30.26 in.Hg (1025 mB)
Relative humidity74 %
Density altitude-711 ft. (-217 m)
Sea-level pressure102.5 kPa (1025 mB, 30.27 in.Hg)
Max temp last 6 hours11.1°C (52.0°F)
Min temp last 6 hours10.0°C (50.0°F)
Remarks Automated weather observing station with precipitation discriminator
Pressure rising more quickly
Flight conditions Marginal Visual Meteorological Conditions
Raw dataKORD 231151Z 19004KT 10SM SCT020 BKN029 BKN250 11/07 A3026 RMK AO2 SLP249 T01110067 10111 20100 53011
An error has occurred. This application may no longer respond until reloaded. Reload 🗙